createdAt,value
2018-04-24T00:00:55.607Z,13.70
2018-04-24T00:01:55.854Z,13.80
2018-04-24T00:02:56.088Z,13.80
2018-04-24T00:03:56.332Z,13.40
2018-04-24T00:04:56.569Z,14.10
2018-04-24T00:05:56.809Z,13.10
2018-04-24T00:06:57.049Z,13.80
2018-04-24T00:07:57.286Z,13.40
2018-04-24T00:08:57.525Z,13.70
2018-04-24T00:09:57.763Z,13.90
2018-04-24T00:10:58.007Z,13.10
2018-04-24T00:11:58.245Z,12.90
2018-04-24T00:12:58.487Z,14.00
2018-04-24T00:13:58.729Z,12.90
2018-04-24T00:14:58.967Z,13.30
2018-04-24T00:15:59.207Z,13.00
2018-04-24T00:16:59.448Z,12.80
2018-04-24T00:17:59.687Z,13.20
2018-04-24T00:18:59.925Z,13.10
2018-04-24T00:20:00.164Z,13.00
2018-04-24T00:21:00.403Z,13.40
2018-04-24T00:22:00.643Z,13.10
2018-04-24T00:23:00.881Z,13.00
2018-04-24T00:24:01.120Z,13.80
2018-04-24T00:25:01.368Z,13.30
2018-04-24T00:26:01.682Z,12.80
2018-04-24T00:27:01.840Z,12.50
2018-04-24T00:28:02.078Z,12.80
2018-04-24T00:29:02.320Z,12.10
2018-04-24T00:30:02.559Z,12.30
2018-04-24T00:31:02.797Z,13.10
2018-04-24T00:32:03.036Z,13.30
2018-04-24T00:33:03.277Z,13.20
2018-04-24T00:34:03.517Z,13.30
2018-04-24T00:35:03.756Z,13.80
2018-04-24T00:36:03.995Z,13.20
2018-04-24T00:37:04.235Z,13.50
2018-04-24T00:38:04.475Z,14.60
2018-04-24T00:39:04.715Z,13.70
2018-04-24T00:40:04.955Z,14.70
2018-04-24T00:41:05.194Z,14.40
2018-04-24T00:42:05.440Z,16.40
2018-04-24T00:43:05.674Z,15.80
2018-04-24T00:44:05.913Z,15.80
2018-04-24T00:45:06.149Z,15.30
2018-04-24T00:46:06.389Z,15.80
2018-04-24T00:47:06.626Z,16.80
2018-04-24T00:48:06.867Z,16.30
2018-04-24T00:49:07.104Z,14.90
2018-04-24T00:50:07.343Z,13.30
2018-04-24T00:51:07.581Z,14.10
2018-04-24T00:52:07.819Z,13.70
2018-04-24T00:53:08.059Z,14.00
2018-04-24T00:54:08.298Z,14.10
2018-04-24T00:55:08.537Z,13.80
2018-04-24T00:56:08.776Z,13.70
2018-04-24T00:57:09.017Z,14.20
2018-04-24T00:58:09.254Z,13.70
2018-04-24T00:59:09.494Z,13.20
2018-04-24T01:00:09.734Z,14.50
2018-04-24T01:01:09.971Z,13.20
2018-04-24T01:02:10.213Z,14.50
2018-04-24T01:03:10.453Z,14.30
2018-04-24T01:04:10.694Z,13.50
2018-04-24T01:05:10.932Z,13.00
2018-04-24T01:06:11.171Z,13.90
2018-04-24T01:07:11.410Z,13.60
2018-04-24T01:08:11.648Z,13.60
2018-04-24T01:09:11.891Z,13.50
2018-04-24T01:10:12.127Z,14.00
2018-04-24T01:11:12.366Z,13.40
2018-04-24T01:12:12.606Z,13.50
2018-04-24T01:13:12.843Z,14.20
2018-04-24T01:14:13.081Z,13.60
2018-04-24T01:15:13.319Z,14.10
2018-04-24T01:16:13.559Z,14.50
2018-04-24T01:17:13.796Z,14.70
2018-04-24T01:18:14.036Z,14.30
2018-04-24T01:19:14.271Z,14.30
2018-04-24T01:20:14.512Z,15.10
2018-04-24T01:21:14.752Z,15.20
2018-04-24T01:22:14.994Z,14.50
2018-04-24T01:23:15.231Z,15.00
2018-04-24T01:24:15.471Z,14.60
2018-04-24T01:25:15.709Z,14.50
2018-04-24T01:26:15.946Z,15.20
2018-04-24T01:27:16.185Z,14.80
2018-04-24T01:28:16.425Z,15.90
2018-04-24T01:29:16.663Z,15.30
2018-04-24T01:30:16.901Z,16.00
2018-04-24T01:31:17.141Z,14.50
2018-04-24T01:32:17.380Z,15.30
2018-04-24T01:33:17.620Z,15.30
2018-04-24T01:34:17.859Z,15.20
2018-04-24T01:35:18.097Z,15.60
2018-04-24T01:36:18.337Z,16.00
2018-04-24T01:37:18.575Z,15.50
2018-04-24T01:38:18.816Z,15.10
2018-04-24T01:39:19.051Z,15.60
2018-04-24T01:40:19.291Z,15.40
2018-04-24T01:41:19.528Z,15.40
2018-04-24T01:42:19.769Z,15.90
2018-04-24T01:43:20.008Z,16.40
2018-04-24T01:44:20.245Z,15.70
2018-04-24T01:45:20.486Z,16.70
2018-04-24T01:46:20.721Z,15.70
2018-04-24T01:47:20.962Z,15.50
2018-04-24T01:48:21.200Z,16.10
2018-04-24T01:49:21.438Z,16.40
2018-04-24T01:50:21.676Z,15.80
2018-04-24T01:51:21.913Z,16.80
2018-04-24T01:52:22.155Z,16.20
2018-04-24T01:53:22.394Z,16.40
2018-04-24T01:54:22.634Z,16.90
2018-04-24T01:55:22.874Z,16.10
2018-04-24T01:56:23.111Z,16.20
2018-04-24T01:57:23.350Z,16.10
2018-04-24T01:58:23.589Z,17.80
2018-04-24T01:59:23.827Z,16.80
2018-04-24T02:00:24.067Z,17.40
2018-04-24T02:01:24.307Z,16.70
2018-04-24T02:02:24.546Z,16.50
2018-04-24T02:03:24.784Z,17.20
2018-04-24T02:04:25.021Z,16.70
2018-04-24T02:05:25.261Z,18.00
2018-04-24T02:06:25.500Z,17.60
2018-04-24T02:07:25.740Z,17.70
2018-04-24T02:08:25.977Z,17.20
2018-04-24T02:09:26.213Z,18.40
2018-04-24T02:10:26.455Z,18.30
2018-04-24T02:11:26.693Z,17.50
2018-04-24T02:12:26.935Z,17.60
2018-04-24T02:13:27.170Z,17.10
2018-04-24T02:14:27.410Z,18.10
2018-04-24T02:15:27.651Z,17.90
2018-04-24T02:16:27.888Z,18.90
2018-04-24T02:17:28.127Z,18.20
2018-04-24T02:18:28.364Z,17.60
2018-04-24T02:19:28.605Z,18.30
2018-04-24T02:20:28.844Z,17.80
2018-04-24T02:21:29.088Z,17.40
2018-04-24T02:22:29.324Z,17.40
2018-04-24T02:23:29.561Z,17.70
2018-04-24T02:24:29.853Z,17.30
2018-04-24T02:25:30.041Z,18.10
2018-04-24T02:26:30.279Z,17.40
2018-04-24T02:27:30.515Z,18.30
2018-04-24T02:28:30.756Z,18.30
2018-04-24T02:29:30.995Z,18.50
2018-04-24T02:30:31.234Z,18.00
2018-04-24T02:31:31.471Z,18.90
2018-04-24T02:32:31.710Z,17.90
2018-04-24T02:33:31.951Z,18.00
2018-04-24T02:34:32.185Z,17.90
2018-04-24T02:35:32.425Z,17.30
2018-04-24T02:36:32.665Z,19.30
2018-04-24T02:37:32.900Z,19.60
2018-04-24T02:38:33.140Z,18.10
2018-04-24T02:39:33.379Z,19.60
2018-04-24T02:40:33.619Z,20.00
2018-04-24T02:41:33.856Z,20.40
2018-04-24T02:42:34.095Z,20.60
2018-04-24T02:43:34.333Z,20.00
2018-04-24T02:44:34.570Z,19.80
2018-04-24T02:45:34.810Z,19.70
2018-04-24T02:46:35.050Z,18.50
2018-04-24T02:47:35.294Z,20.20
2018-04-24T02:48:35.527Z,19.70
2018-04-24T02:49:35.768Z,20.10
2018-04-24T02:50:36.007Z,19.80
2018-04-24T02:51:36.246Z,19.20
2018-04-24T02:52:36.486Z,19.90
2018-04-24T02:53:36.730Z,19.10
2018-04-24T02:54:36.962Z,19.10
2018-04-24T02:55:37.201Z,18.90
2018-04-24T02:56:37.440Z,20.50
2018-04-24T02:57:37.678Z,20.50
2018-04-24T02:58:37.916Z,21.30
2018-04-24T02:59:38.155Z,19.00
2018-04-24T03:00:38.396Z,19.00
2018-04-24T03:01:38.637Z,19.80
2018-04-24T03:02:38.873Z,20.40
2018-04-24T03:03:39.115Z,20.50
2018-04-24T03:04:39.356Z,19.40
2018-04-24T03:05:39.597Z,20.00
2018-04-24T03:06:39.833Z,19.00
2018-04-24T03:07:40.071Z,19.40
2018-04-24T03:08:40.306Z,20.60
2018-04-24T03:09:40.541Z,19.40
2018-04-24T03:10:40.784Z,18.70
2018-04-24T03:11:41.020Z,19.00
2018-04-24T03:12:41.259Z,19.80
2018-04-24T03:13:41.500Z,18.00
2018-04-24T03:14:41.738Z,20.50
2018-04-24T03:15:41.976Z,19.50
2018-04-24T03:16:42.216Z,19.20
2018-04-24T03:17:42.457Z,20.00
2018-04-24T03:18:42.697Z,20.30
2018-04-24T03:19:42.931Z,19.80
2018-04-24T03:20:43.172Z,21.50
2018-04-24T03:21:43.409Z,20.50
2018-04-24T03:22:43.646Z,20.60
2018-04-24T03:23:43.884Z,19.70
2018-04-24T03:24:44.124Z,19.40
2018-04-24T03:25:44.363Z,20.50
2018-04-24T03:26:44.604Z,21.80
2018-04-24T03:27:44.840Z,20.60
2018-04-24T03:28:45.091Z,21.10
2018-04-24T03:29:45.324Z,22.50
2018-04-24T03:30:45.563Z,21.20
2018-04-24T03:31:45.802Z,21.30
2018-04-24T03:32:46.086Z,20.80
2018-04-24T03:33:46.279Z,21.30
2018-04-24T03:34:46.519Z,20.20
2018-04-24T03:35:46.756Z,20.30
2018-04-24T03:36:47.000Z,20.00
2018-04-24T03:37:47.233Z,19.30
2018-04-24T03:38:47.470Z,19.50
2018-04-24T03:39:47.711Z,19.90
2018-04-24T03:40:47.949Z,18.60
2018-04-24T03:41:48.188Z,19.00
2018-04-24T03:42:48.429Z,19.20
2018-04-24T03:43:48.666Z,19.70
2018-04-24T03:44:48.903Z,19.60
2018-04-24T03:45:49.145Z,18.50
2018-04-24T03:46:49.381Z,18.60
2018-04-24T03:47:49.618Z,20.10
2018-04-24T03:48:49.858Z,18.70
2018-04-24T03:49:50.096Z,20.20
2018-04-24T03:50:50.335Z,19.90
2018-04-24T03:51:50.573Z,18.40
2018-04-24T03:52:50.813Z,20.60
2018-04-24T03:53:51.053Z,20.60
2018-04-24T03:54:51.292Z,20.90
2018-04-24T03:55:51.535Z,19.50
2018-04-24T03:56:51.771Z,19.60
2018-04-24T03:57:52.011Z,20.00
2018-04-24T03:58:52.248Z,19.60
2018-04-24T03:59:52.569Z,20.10
2018-04-24T04:00:52.727Z,19.00
2018-04-24T04:01:52.965Z,19.50
2018-04-24T04:02:53.205Z,19.90
2018-04-24T04:03:53.441Z,19.80
2018-04-24T04:04:53.678Z,19.60
2018-04-24T04:05:53.918Z,19.20
2018-04-24T04:06:54.158Z,18.60
2018-04-24T04:07:54.396Z,19.30
2018-04-24T04:08:54.635Z,20.30
2018-04-24T04:09:54.875Z,19.80
2018-04-24T04:10:55.121Z,20.10
2018-04-24T04:11:55.351Z,20.70
2018-04-24T04:12:55.589Z,20.20
2018-04-24T04:13:55.828Z,21.80
2018-04-24T04:14:56.067Z,20.50
2018-04-24T04:15:56.346Z,20.60
2018-04-24T04:16:56.545Z,19.90
2018-04-24T04:17:56.785Z,20.10
2018-04-24T04:18:57.023Z,19.80
2018-04-24T04:19:57.261Z,20.00
2018-04-24T04:20:57.500Z,19.60
2018-04-24T04:21:57.742Z,18.90
2018-04-24T04:22:57.975Z,19.40
2018-04-24T04:23:58.216Z,18.80
2018-04-24T04:24:58.453Z,19.60
2018-04-24T04:25:58.691Z,18.10
2018-04-24T04:26:58.947Z,19.40
2018-04-24T04:27:59.186Z,18.20
2018-04-24T04:28:59.425Z,18.50
2018-04-24T04:29:59.662Z,17.50
2018-04-24T04:30:59.901Z,18.60
2018-04-24T04:32:00.138Z,18.00
2018-04-24T04:33:00.451Z,18.40
2018-04-24T04:34:00.616Z,18.80
2018-04-24T04:35:00.862Z,19.20
2018-04-24T04:36:01.093Z,19.60
2018-04-24T04:37:01.332Z,17.60
2018-04-24T04:38:01.571Z,18.70
2018-04-24T04:39:01.809Z,17.80
2018-04-24T04:40:02.051Z,17.50
2018-04-24T04:41:02.289Z,16.90
2018-04-24T04:42:02.528Z,17.40
2018-04-24T04:43:02.768Z,16.50
2018-04-24T04:44:03.006Z,17.10
2018-04-24T04:45:03.245Z,17.10
2018-04-24T04:46:03.489Z,16.10
2018-04-24T04:47:03.725Z,16.20
2018-04-24T04:48:03.963Z,16.00
2018-04-24T04:49:04.201Z,15.20
2018-04-24T04:50:04.445Z,15.60
2018-04-24T04:51:04.679Z,16.40
2018-04-24T04:52:04.919Z,16.80
2018-04-24T04:53:05.162Z,16.10
2018-04-24T04:54:05.402Z,16.70
2018-04-24T04:55:05.637Z,16.40
2018-04-24T04:56:05.884Z,17.10
2018-04-24T04:57:06.113Z,16.80
2018-04-24T04:58:06.352Z,17.10
2018-04-24T04:59:06.591Z,17.00
2018-04-24T05:00:06.833Z,15.80
2018-04-24T05:01:07.073Z,16.10
2018-04-24T05:02:07.307Z,15.70
2018-04-24T05:03:07.547Z,16.50
2018-04-24T05:04:07.785Z,16.20
2018-04-24T05:05:08.081Z,16.30
2018-04-24T05:06:08.268Z,15.50
2018-04-24T05:07:08.501Z,15.70
2018-04-24T05:08:08.740Z,15.10
2018-04-24T05:09:08.982Z,16.30
2018-04-24T05:10:09.224Z,16.90
2018-04-24T05:11:09.461Z,15.90
2018-04-24T05:12:09.841Z,16.80
2018-04-24T05:13:09.934Z,16.70
2018-04-24T05:14:10.172Z,16.00
2018-04-24T05:15:10.410Z,14.60
2018-04-24T05:16:10.649Z,15.40
2018-04-24T05:17:10.887Z,16.70
2018-04-24T05:18:11.126Z,15.40
2018-04-24T05:19:11.370Z,15.80
2018-04-24T05:20:11.640Z,16.90
2018-04-24T05:21:11.846Z,15.50
2018-04-24T05:22:12.085Z,16.40
2018-04-24T05:23:12.327Z,16.00
2018-04-24T05:24:12.564Z,16.70
2018-04-24T05:25:12.805Z,17.00
2018-04-24T05:26:13.045Z,16.70
2018-04-24T05:27:13.285Z,16.50
2018-04-24T05:28:13.524Z,18.20
2018-04-24T05:29:13.766Z,17.80
2018-04-24T05:30:14.001Z,17.00
2018-04-24T05:31:14.240Z,16.90
2018-04-24T05:32:14.480Z,15.70
2018-04-24T05:33:14.716Z,15.90
2018-04-24T05:34:14.955Z,16.60
2018-04-24T05:35:15.195Z,15.40
2018-04-24T05:36:15.434Z,14.90
2018-04-24T05:37:15.672Z,15.20
2018-04-24T05:38:15.913Z,15.00
2018-04-24T05:39:16.151Z,15.80
2018-04-24T05:40:16.390Z,15.60
2018-04-24T05:41:16.629Z,15.90
2018-04-24T05:42:16.869Z,15.40
2018-04-24T05:43:17.110Z,15.80
2018-04-24T05:44:17.349Z,15.20
2018-04-24T05:45:17.622Z,16.00
2018-04-24T05:46:17.829Z,15.30
2018-04-24T05:47:18.069Z,15.60
2018-04-24T05:48:18.310Z,15.40
2018-04-24T05:49:18.550Z,15.20
2018-04-24T05:50:18.788Z,15.50
2018-04-24T05:51:19.029Z,15.60
2018-04-24T05:52:19.335Z,15.60
2018-04-24T05:53:19.509Z,14.20
2018-04-24T05:54:19.746Z,14.40
2018-04-24T05:55:19.991Z,15.40
2018-04-24T05:56:20.226Z,14.60
2018-04-24T05:57:20.467Z,14.10
2018-04-24T05:58:20.707Z,14.40
2018-04-24T05:59:20.947Z,15.40
2018-04-24T06:00:21.187Z,14.50
2018-04-24T06:01:21.428Z,14.60
2018-04-24T06:02:21.667Z,14.80
2018-04-24T06:03:21.907Z,14.60
2018-04-24T06:04:22.145Z,14.50
2018-04-24T06:05:22.386Z,14.20
2018-04-24T06:06:22.626Z,14.40
2018-04-24T06:07:22.865Z,14.80
2018-04-24T06:08:23.192Z,14.10
2018-04-24T06:09:23.347Z,14.30
2018-04-24T06:10:23.588Z,13.40
2018-04-24T06:11:23.827Z,13.00
2018-04-24T06:12:24.069Z,13.60
2018-04-24T06:13:24.308Z,13.60
2018-04-24T06:14:24.547Z,13.50
2018-04-24T06:15:24.789Z,12.80
2018-04-24T06:16:25.036Z,13.30
2018-04-24T06:17:25.272Z,12.70
2018-04-24T06:18:25.513Z,12.40
2018-04-24T06:19:25.753Z,12.30
2018-04-24T06:20:25.995Z,12.10
2018-04-24T06:21:26.236Z,11.00
2018-04-24T06:22:26.550Z,11.70
2018-04-24T06:23:26.714Z,11.70
2018-04-24T06:24:26.955Z,12.40
2018-04-24T06:25:27.193Z,11.90
2018-04-24T06:26:27.434Z,12.10
2018-04-24T06:27:27.675Z,11.60
2018-04-24T06:28:27.934Z,12.10
2018-04-24T06:29:28.155Z,10.70
2018-04-24T06:30:28.395Z,10.60
2018-04-24T06:31:28.635Z,11.10
2018-04-24T06:32:28.875Z,11.80
2018-04-24T06:33:29.116Z,11.40
2018-04-24T06:34:29.356Z,11.20
2018-04-24T06:35:29.600Z,10.80
2018-04-24T06:36:29.837Z,10.40
2018-04-24T06:37:30.080Z,10.70
2018-04-24T06:38:30.320Z,10.50
2018-04-24T06:39:30.559Z,10.40
2018-04-24T06:40:30.800Z,10.40
2018-04-24T06:41:31.042Z,10.60
2018-04-24T06:42:31.281Z,9.80
2018-04-24T06:43:31.524Z,9.80
2018-04-24T06:44:31.768Z,8.70
2018-04-24T06:45:32.007Z,10.70
2018-04-24T06:46:32.247Z,10.20
2018-04-24T06:47:32.486Z,9.70
2018-04-24T06:48:32.728Z,9.20
2018-04-24T06:49:32.971Z,9.20
2018-04-24T06:50:33.212Z,7.60
2018-04-24T06:51:33.455Z,8.10
2018-04-24T06:52:33.699Z,8.00
2018-04-24T06:53:33.937Z,7.90
2018-04-24T06:54:34.182Z,7.30
2018-04-24T06:55:34.424Z,6.60
2018-04-24T06:56:34.672Z,7.30
2018-04-24T06:57:34.910Z,6.20
2018-04-24T06:58:35.153Z,6.30
2018-04-24T06:59:35.409Z,5.20
2018-04-24T07:00:35.702Z,5.40
2018-04-24T07:01:35.884Z,6.20
2018-04-24T07:02:36.122Z,6.00
2018-04-24T07:03:36.365Z,6.10
2018-04-24T07:04:36.607Z,5.90
2018-04-24T07:05:36.851Z,5.20
2018-04-24T07:06:37.094Z,5.60
2018-04-24T07:07:37.344Z,4.80
2018-04-24T07:08:37.581Z,5.40
2018-04-24T07:09:37.828Z,5.80
2018-04-24T07:10:38.068Z,6.40
2018-04-24T07:11:38.317Z,11.30
2018-04-24T07:12:38.568Z,9.10
2018-04-24T07:13:38.801Z,8.90
2018-04-24T07:14:39.042Z,13.20
2018-04-24T07:15:39.283Z,6.00
2018-04-24T07:16:39.529Z,4.80
2018-04-24T07:17:39.772Z,4.00
2018-04-24T07:18:40.014Z,4.90
2018-04-24T07:19:40.269Z,4.20
2018-04-24T07:20:40.503Z,4.20
2018-04-24T07:21:40.746Z,3.60
2018-04-24T07:22:40.990Z,4.30
2018-04-24T07:23:41.235Z,4.10
2018-04-24T07:24:41.478Z,3.50
2018-04-24T07:25:41.725Z,3.70
2018-04-24T07:26:41.967Z,3.90
2018-04-24T07:27:42.212Z,3.90
2018-04-24T07:28:42.461Z,4.50
2018-04-24T07:29:42.700Z,3.80
2018-04-24T07:30:42.944Z,3.80
2018-04-24T07:31:43.189Z,3.60
2018-04-24T07:32:43.433Z,3.60
2018-04-24T07:33:43.677Z,3.60
2018-04-24T07:34:43.926Z,3.40
2018-04-24T07:35:44.166Z,3.90
2018-04-24T07:36:44.410Z,3.30
2018-04-24T07:37:44.653Z,3.40
2018-04-24T07:38:44.898Z,3.60
2018-04-24T07:39:45.142Z,3.30
2018-04-24T07:40:45.391Z,3.40
2018-04-24T07:41:45.634Z,3.00
2018-04-24T07:42:45.887Z,2.90
2018-04-24T07:43:46.123Z,3.10
2018-04-24T07:44:46.366Z,3.00
2018-04-24T07:45:46.611Z,7.00
2018-04-24T07:46:46.947Z,11.90
2018-04-24T07:47:47.100Z,4.50
2018-04-24T07:48:47.344Z,4.60
2018-04-24T07:49:47.590Z,6.60
2018-04-24T07:50:47.836Z,3.80
2018-04-24T07:51:48.083Z,2.30
2018-04-24T07:52:48.325Z,2.40
2018-04-24T07:53:48.571Z,3.50
2018-04-24T07:54:48.817Z,2.70
2018-04-24T07:55:49.068Z,2.00
2018-04-24T07:56:49.325Z,1.80
2018-04-24T07:57:49.580Z,2.10
2018-04-24T07:58:49.833Z,2.10
2018-04-24T07:59:50.051Z,1.80
2018-04-24T08:00:50.299Z,2.10
2018-04-24T08:01:50.547Z,1.30
2018-04-24T08:02:50.795Z,1.40
2018-04-24T08:03:51.044Z,1.60
2018-04-24T08:04:51.290Z,1.70
2018-04-24T08:05:51.553Z,1.60
2018-04-24T08:06:51.800Z,1.60
2018-04-24T08:07:52.047Z,1.40
2018-04-24T08:08:52.295Z,1.60
2018-04-24T08:09:52.539Z,1.40
2018-04-24T08:10:52.787Z,1.60
2018-04-24T08:11:53.043Z,1.70
2018-04-24T08:12:53.285Z,1.30
2018-04-24T08:13:53.529Z,1.80
2018-04-24T08:14:53.775Z,1.40
2018-04-24T08:15:54.021Z,1.50
2018-04-24T08:16:54.265Z,1.60
2018-04-24T08:17:54.514Z,1.40
2018-04-24T08:18:54.761Z,1.80
2018-04-24T08:19:55.006Z,1.70
2018-04-24T08:20:55.261Z,1.70
2018-04-24T08:21:55.491Z,1.50
2018-04-24T08:22:55.748Z,1.30
2018-04-24T08:23:55.984Z,1.70
2018-04-24T08:24:56.230Z,1.50
2018-04-24T08:25:56.477Z,1.60
2018-04-24T08:26:56.726Z,1.90
2018-04-24T08:27:56.972Z,1.80
2018-04-24T08:28:57.219Z,1.90
2018-04-24T08:29:57.468Z,1.90
2018-04-24T08:30:57.919Z,2.10
2018-04-24T08:31:58.016Z,1.80
2018-04-24T08:32:58.266Z,2.10
2018-04-24T08:33:58.515Z,1.50
2018-04-24T08:34:58.765Z,1.80
2018-04-24T08:35:59.015Z,1.60
2018-04-24T08:36:59.265Z,1.60
2018-04-24T08:37:59.516Z,2.00
2018-04-24T08:38:59.768Z,1.60
2018-04-24T08:40:00.091Z,1.70
2018-04-24T08:41:00.257Z,1.50
2018-04-24T08:42:00.508Z,1.50
2018-04-24T08:43:00.760Z,1.40
2018-04-24T08:44:01.003Z,1.70
2018-04-24T08:45:01.252Z,1.80
2018-04-24T08:46:01.500Z,1.70
2018-04-24T08:47:01.748Z,1.50
2018-04-24T08:48:01.997Z,1.30
2018-04-24T08:49:02.253Z,1.10
2018-04-24T08:50:02.493Z,1.40
2018-04-24T08:51:02.745Z,1.40
2018-04-24T08:52:02.992Z,1.80
2018-04-24T08:53:03.241Z,1.30
2018-04-24T08:54:03.509Z,1.20
2018-04-24T08:55:03.742Z,1.10
2018-04-24T08:56:03.986Z,1.40
2018-04-24T08:57:04.233Z,1.20
2018-04-24T08:58:04.481Z,1.40
2018-04-24T08:59:04.731Z,1.40
2018-04-24T09:00:04.979Z,1.70
2018-04-24T09:01:05.229Z,1.50
2018-04-24T09:02:05.544Z,1.50
2018-04-24T09:03:05.727Z,1.40
2018-04-24T09:04:05.977Z,1.30
2018-04-24T09:05:06.225Z,1.60
2018-04-24T09:06:06.473Z,1.70
2018-04-24T09:07:06.721Z,1.40
2018-04-24T09:08:06.972Z,1.60
2018-04-24T09:09:07.737Z,1.70
2018-04-24T09:10:07.803Z,1.60
2018-04-24T09:11:07.847Z,1.70
2018-04-24T09:12:08.092Z,1.50
2018-04-24T09:13:08.342Z,1.80
2018-04-24T09:14:08.621Z,1.40
2018-04-24T09:15:08.842Z,1.50
2018-04-24T09:16:09.088Z,1.50
2018-04-24T09:17:09.338Z,1.50
2018-04-24T09:18:09.584Z,1.70
2018-04-24T09:19:09.836Z,1.50
2018-04-24T09:20:10.084Z,1.50
2018-04-24T09:21:10.334Z,1.40
2018-04-24T09:22:10.587Z,1.70
2018-04-24T09:23:10.834Z,1.30
2018-04-24T09:24:11.086Z,1.60
2018-04-24T09:25:11.331Z,1.30
2018-04-24T09:26:11.581Z,1.30
2018-04-24T09:27:11.879Z,1.40
2018-04-24T09:28:12.079Z,1.60
2018-04-24T09:29:12.337Z,1.80
2018-04-24T09:30:12.582Z,1.60
2018-04-24T09:31:12.831Z,1.60
2018-04-24T09:32:13.080Z,1.30
2018-04-24T09:33:13.330Z,1.50
2018-04-24T09:34:13.581Z,1.60
2018-04-24T09:35:13.837Z,1.70
2018-04-24T09:36:14.079Z,1.30
2018-04-24T09:37:14.332Z,1.90
2018-04-24T09:38:14.582Z,1.70
2018-04-24T09:39:14.835Z,1.40
2018-04-24T09:40:15.084Z,1.60
2018-04-24T09:41:15.333Z,1.60
2018-04-24T09:42:15.587Z,1.60
2018-04-24T09:43:15.837Z,1.70
2018-04-24T09:44:16.091Z,1.40
2018-04-24T09:45:16.343Z,1.90
2018-04-24T09:46:16.594Z,1.20
2018-04-24T09:47:16.843Z,1.50
2018-04-24T09:48:17.092Z,1.60
2018-04-24T09:49:17.347Z,1.10
2018-04-24T09:50:17.599Z,1.20
2018-04-24T09:51:17.867Z,1.50
2018-04-24T09:52:18.101Z,1.30
2018-04-24T09:53:18.351Z,1.50
2018-04-24T09:54:18.607Z,1.00
2018-04-24T09:55:18.856Z,1.30
2018-04-24T09:56:19.110Z,1.20
2018-04-24T09:57:19.361Z,1.20
2018-04-24T09:58:19.613Z,1.20
2018-04-24T09:59:19.867Z,1.10
2018-04-24T10:00:20.118Z,1.30
2018-04-24T10:01:20.373Z,1.20
2018-04-24T10:02:20.708Z,1.10
2018-04-24T10:03:20.881Z,1.20
2018-04-24T10:04:21.136Z,1.30
2018-04-24T10:05:21.387Z,1.50
2018-04-24T10:06:21.642Z,1.50
2018-04-24T10:07:21.892Z,1.30
2018-04-24T10:08:22.146Z,1.30
2018-04-24T10:09:22.401Z,1.30
2018-04-24T10:10:22.660Z,1.40
2018-04-24T10:11:22.907Z,1.60
2018-04-24T10:12:23.165Z,2.20
2018-04-24T10:13:23.495Z,1.10
2018-04-24T10:14:23.670Z,1.30
2018-04-24T10:15:23.924Z,1.30
2018-04-24T10:16:24.179Z,1.30
2018-04-24T10:17:24.436Z,1.70
2018-04-24T10:18:24.683Z,1.60
2018-04-24T10:19:24.940Z,1.40
2018-04-24T10:20:25.194Z,1.30
2018-04-24T10:21:25.447Z,1.10
2018-04-24T10:22:25.699Z,1.50
2018-04-24T10:23:25.953Z,1.30
2018-04-24T10:24:26.209Z,1.50
2018-04-24T10:25:26.459Z,1.30
2018-04-24T10:26:26.714Z,1.30
2018-04-24T10:27:26.971Z,1.30
2018-04-24T10:28:27.226Z,1.40
2018-04-24T10:29:27.470Z,1.30
2018-04-24T10:30:27.768Z,1.30
2018-04-24T10:31:27.979Z,1.20
2018-04-24T10:32:28.231Z,1.30
2018-04-24T10:33:28.485Z,1.20
2018-04-24T10:34:28.738Z,1.30
2018-04-24T10:35:28.991Z,1.00
2018-04-24T10:36:29.247Z,1.30
2018-04-24T10:37:29.555Z,1.00
2018-04-24T10:38:29.750Z,1.00
2018-04-24T10:39:30.008Z,1.30
2018-04-24T10:40:30.258Z,1.20
2018-04-24T10:41:30.512Z,1.00
2018-04-24T10:42:30.769Z,1.00
2018-04-24T10:43:31.023Z,1.10
2018-04-24T10:44:31.278Z,1.20
2018-04-24T10:45:31.532Z,1.10
2018-04-24T10:46:31.787Z,0.80
2018-04-24T10:47:32.038Z,1.10
2018-04-24T10:48:32.292Z,1.10
2018-04-24T10:49:32.547Z,0.80
2018-04-24T10:50:32.799Z,1.20
2018-04-24T10:51:33.131Z,0.90
2018-04-24T10:52:33.312Z,1.00
2018-04-24T10:53:33.635Z,1.00
2018-04-24T10:54:33.904Z,1.00
2018-04-24T10:55:34.060Z,1.00
2018-04-24T10:56:34.315Z,1.00
2018-04-24T10:57:34.567Z,1.10
2018-04-24T10:58:34.820Z,1.00
2018-04-24T10:59:35.076Z,1.10
2018-04-24T11:00:35.410Z,1.30
2018-04-24T11:01:35.583Z,1.20
2018-04-24T11:02:35.837Z,1.30
2018-04-24T11:03:36.091Z,1.10
2018-04-24T11:04:36.344Z,1.50
2018-04-24T11:05:36.598Z,1.40
2018-04-24T11:06:36.865Z,1.50
2018-04-24T11:07:37.104Z,1.60
2018-04-24T11:08:37.355Z,1.30
2018-04-24T11:09:37.605Z,1.20
2018-04-24T11:10:37.856Z,1.10
2018-04-24T11:11:38.179Z,1.10
2018-04-24T11:12:38.365Z,1.40
2018-04-24T11:13:38.616Z,1.10
2018-04-24T11:14:38.867Z,1.20
2018-04-24T11:15:39.116Z,1.30
2018-04-24T11:16:39.366Z,1.00
2018-04-24T11:17:39.613Z,1.30
2018-04-24T11:18:39.860Z,1.20
2018-04-24T11:19:40.110Z,1.30
2018-04-24T11:20:40.363Z,1.40
2018-04-24T11:21:40.612Z,0.90
2018-04-24T11:22:40.864Z,1.00
2018-04-24T11:23:41.132Z,0.90
2018-04-24T11:24:41.352Z,0.80
2018-04-24T11:25:41.603Z,1.00
2018-04-24T11:26:41.872Z,0.90
2018-04-24T11:27:42.104Z,1.10
2018-04-24T11:28:42.334Z,0.80
2018-04-24T11:29:42.585Z,0.90
2018-04-24T11:30:42.835Z,1.00
2018-04-24T11:31:43.080Z,0.90
2018-04-24T11:32:43.329Z,1.10
2018-04-24T11:33:43.578Z,1.10
2018-04-24T11:34:43.826Z,1.10
2018-04-24T11:35:44.073Z,1.00
2018-04-24T11:36:44.336Z,1.20
2018-04-24T11:37:44.570Z,1.20
2018-04-24T11:38:44.815Z,1.10
2018-04-24T11:39:45.066Z,1.10
2018-04-24T11:40:45.312Z,1.10
2018-04-24T11:41:45.561Z,1.10
2018-04-24T11:42:45.809Z,1.10
2018-04-24T11:43:46.092Z,1.30
2018-04-24T11:44:46.305Z,1.20
2018-04-24T11:45:46.554Z,1.10
2018-04-24T11:46:46.807Z,1.40
2018-04-24T11:47:47.059Z,1.40
2018-04-24T11:48:47.304Z,1.40
2018-04-24T11:49:47.552Z,1.30
2018-04-24T11:50:47.803Z,1.40
2018-04-24T11:51:48.048Z,1.60
2018-04-24T11:52:48.293Z,1.60
2018-04-24T11:53:48.543Z,1.50
2018-04-24T11:54:48.793Z,1.90
2018-04-24T11:55:49.042Z,1.70
2018-04-24T11:56:49.293Z,1.50
2018-04-24T11:57:49.539Z,1.80
2018-04-24T11:58:49.782Z,1.70
2018-04-24T11:59:50.038Z,1.60
2018-04-24T12:00:50.285Z,1.40
2018-04-24T12:01:50.533Z,1.60
2018-04-24T12:02:50.775Z,1.50
2018-04-24T12:03:51.026Z,1.40
2018-04-24T12:04:51.273Z,1.20
2018-04-24T12:05:51.521Z,2.00
2018-04-24T12:06:51.770Z,1.90
2018-04-24T12:07:52.017Z,1.90
2018-04-24T12:08:52.270Z,2.00
2018-04-24T12:09:52.592Z,1.90
2018-04-24T12:10:52.763Z,1.70
2018-04-24T12:11:53.011Z,1.80
2018-04-24T12:12:53.256Z,2.40
2018-04-24T12:13:53.500Z,1.80
2018-04-24T12:14:53.749Z,2.20
2018-04-24T12:15:53.996Z,2.10
2018-04-24T12:16:54.244Z,2.50
2018-04-24T12:17:54.494Z,2.10
2018-04-24T12:18:54.745Z,2.30
2018-04-24T12:19:54.995Z,2.30
2018-04-24T12:20:55.228Z,2.30
2018-04-24T12:21:55.471Z,1.90
2018-04-24T12:22:55.729Z,2.20
2018-04-24T12:23:55.971Z,2.40
2018-04-24T12:24:56.219Z,2.30
2018-04-24T12:25:56.473Z,3.30
2018-04-24T12:26:56.729Z,3.80
2018-04-24T12:27:56.976Z,4.70
2018-04-24T12:28:57.203Z,6.80
2018-04-24T12:29:57.443Z,6.10
2018-04-24T12:30:57.730Z,6.30
2018-04-24T12:31:57.963Z,3.90
2018-04-24T12:32:58.214Z,2.70
2018-04-24T12:33:58.443Z,2.40
2018-04-24T12:34:58.712Z,2.10
2018-04-24T12:35:58.951Z,2.10
2018-04-24T12:36:59.196Z,2.00
2018-04-24T12:37:59.437Z,1.70
2018-04-24T12:38:59.682Z,1.80
2018-04-24T12:39:59.932Z,1.70
2018-04-24T12:41:00.182Z,1.60
2018-04-24T12:42:00.424Z,1.60
2018-04-24T12:43:00.664Z,1.40
2018-04-24T12:44:00.923Z,1.60
2018-04-24T12:45:01.158Z,1.80
2018-04-24T12:46:01.404Z,1.70
2018-04-24T12:47:01.642Z,1.80
2018-04-24T12:48:01.877Z,1.70
2018-04-24T12:49:02.125Z,1.80
2018-04-24T12:50:02.356Z,1.80
2018-04-24T12:51:02.611Z,1.60
2018-04-24T12:52:02.857Z,1.80
2018-04-24T12:53:03.108Z,1.40
2018-04-24T12:54:03.340Z,1.50
2018-04-24T12:55:03.570Z,1.50
2018-04-24T12:56:03.825Z,1.80
2018-04-24T12:57:04.067Z,1.50
2018-04-24T12:58:04.439Z,1.30
2018-04-24T12:59:04.750Z,1.30
2018-04-24T13:00:04.926Z,1.20
2018-04-24T13:01:05.217Z,1.40
2018-04-24T13:02:05.440Z,1.10
2018-04-24T13:03:05.699Z,1.40
2018-04-24T13:04:05.976Z,1.20
2018-04-24T13:05:06.215Z,1.30
2018-04-24T13:06:06.444Z,1.30
2018-04-24T13:07:06.713Z,1.20
2018-04-24T13:08:06.946Z,1.20